createdAt,value
2022-09-12T00:01:28.815Z,21.28
2022-09-12T00:03:58.317Z,21.24
2022-09-12T00:06:27.887Z,21.24
2022-09-12T00:08:56.401Z,21.21
2022-09-12T00:11:23.135Z,21.20
2022-09-12T00:13:50.155Z,21.17
2022-09-12T00:16:20.641Z,21.18
2022-09-12T00:18:47.362Z,21.15
2022-09-12T00:21:15.276Z,21.14
2022-09-12T00:23:41.840Z,21.13
2022-09-12T00:26:08.446Z,21.12
2022-09-12T00:28:36.862Z,21.11
2022-09-12T00:31:08.900Z,21.16
2022-09-12T00:33:36.758Z,21.10
2022-09-12T00:36:23.184Z,21.26
2022-09-12T00:38:51.018Z,21.09
2022-09-12T00:41:24.150Z,21.15
2022-09-12T00:43:58.419Z,21.09
2022-09-12T00:46:46.097Z,21.15
2022-09-12T00:49:24.266Z,21.12
2022-09-12T00:52:16.677Z,21.20
2022-09-12T00:54:48.020Z,21.07
2022-09-12T00:57:16.265Z,21.03
2022-09-12T00:59:57.241Z,21.10
2022-09-12T01:02:24.699Z,21.00
2022-09-12T01:04:52.234Z,20.98
2022-09-12T01:07:19.978Z,20.98
2022-09-12T01:09:46.717Z,20.96
2022-09-12T01:12:15.383Z,20.97
2022-09-12T01:14:42.442Z,20.94
2022-09-12T01:17:13.819Z,20.98
2022-09-12T01:20:07.454Z,21.02
2022-09-12T01:23:01.914Z,21.05
2022-09-12T01:25:39.922Z,21.00
2022-09-12T01:28:33.865Z,20.90
2022-09-12T01:31:03.495Z,20.94
2022-09-12T01:33:44.682Z,20.94
2022-09-12T01:36:24.249Z,20.97
2022-09-12T01:38:55.163Z,20.89
2022-09-12T01:41:43.636Z,20.87
2022-09-12T01:44:13.016Z,20.82
2022-09-12T01:46:55.974Z,20.91
2022-09-12T01:49:41.276Z,20.93
2022-09-12T01:52:15.632Z,20.81
2022-09-12T01:54:49.373Z,20.80
2022-09-12T01:57:30.021Z,20.84
2022-09-12T02:00:03.773Z,20.79
2022-09-12T02:02:38.587Z,20.79
2022-09-12T02:05:14.747Z,20.72
2022-09-12T02:07:51.143Z,20.78
2022-09-12T02:10:22.552Z,20.75
2022-09-12T02:13:23.271Z,20.86
2022-09-12T02:15:55.437Z,20.73
2022-09-12T02:18:24.575Z,20.67
2022-09-12T02:20:51.832Z,20.64
2022-09-12T02:23:25.297Z,20.68
2022-09-12T02:25:56.257Z,20.66
2022-09-12T02:28:43.276Z,20.77
2022-09-12T02:31:09.707Z,20.64
2022-09-12T02:33:41.175Z,20.98
2022-09-12T02:36:15.532Z,20.64
2022-09-12T02:38:46.866Z,20.66
2022-09-12T02:41:17.639Z,20.62
2022-09-12T02:43:44.227Z,20.56
2022-09-12T02:46:18.020Z,20.60
2022-09-12T02:48:44.648Z,20.54
2022-09-12T02:51:11.619Z,20.52
2022-09-12T02:53:39.122Z,20.52
2022-09-12T02:56:11.215Z,20.55
2022-09-12T02:58:37.882Z,20.51
2022-09-12T03:01:34.740Z,20.60
2022-09-12T03:04:19.536Z,20.60
2022-09-12T03:07:02.406Z,20.54
2022-09-12T03:09:47.168Z,20.58
2022-09-12T03:12:39.642Z,20.45
2022-09-12T03:15:12.424Z,20.44
2022-09-12T03:18:05.440Z,20.49
2022-09-12T03:20:46.020Z,20.50
2022-09-12T03:23:26.005Z,20.45
2022-09-12T03:26:01.665Z,20.43
2022-09-12T03:28:29.211Z,20.35
2022-09-12T03:30:56.633Z,20.34
2022-09-12T03:33:25.845Z,20.34
2022-09-12T03:35:53.309Z,20.31
2022-09-12T03:38:20.135Z,20.30
2022-09-12T03:40:49.330Z,20.30
2022-09-12T03:43:18.032Z,20.31
2022-09-12T03:45:44.587Z,20.30
2022-09-12T03:48:11.086Z,20.28
2022-09-12T03:50:37.533Z,20.64
2022-09-12T03:53:04.251Z,20.31
2022-09-12T03:55:31.222Z,20.29
2022-09-12T03:57:57.808Z,20.27
2022-09-12T04:00:24.816Z,20.25
2022-09-12T04:02:57.798Z,20.32
2022-09-12T04:05:25.497Z,20.23
2022-09-12T04:07:52.529Z,20.23
2022-09-12T04:10:19.266Z,20.21
2022-09-12T04:12:45.790Z,20.20
2022-09-12T04:15:12.379Z,20.56
2022-09-12T04:17:39.946Z,20.24
2022-09-12T04:20:07.017Z,20.20
2022-09-12T04:22:33.802Z,20.16
2022-09-12T04:25:00.344Z,20.16
2022-09-12T04:27:26.701Z,20.51
2022-09-12T04:29:55.375Z,20.18
2022-09-12T04:32:22.495Z,20.13
2022-09-12T04:34:49.243Z,20.13
2022-09-12T04:37:16.930Z,20.10
2022-09-12T04:39:43.432Z,20.09
2022-09-12T04:42:09.982Z,20.46
2022-09-12T04:44:36.494Z,20.11
2022-09-12T04:47:03.382Z,20.47
2022-09-12T04:49:29.967Z,20.13
2022-09-12T04:51:56.481Z,20.44
2022-09-12T04:54:23.024Z,20.09
2022-09-12T04:56:50.740Z,20.04
2022-09-12T04:59:19.831Z,20.02
2022-09-12T05:01:46.553Z,19.99
2022-09-12T05:04:13.815Z,19.98
2022-09-12T05:06:41.806Z,19.96
2022-09-12T05:09:11.402Z,19.95
2022-09-12T05:12:03.698Z,19.90
2022-09-12T05:14:26.708Z,19.81
2022-09-12T05:16:53.174Z,20.14
2022-09-12T05:19:19.756Z,19.66
2022-09-12T05:21:46.194Z,19.97
2022-09-12T05:24:12.760Z,19.48
2022-09-12T05:26:39.288Z,19.77
2022-09-12T05:29:07.187Z,19.29
2022-09-12T05:31:34.783Z,19.15
2022-09-12T05:34:02.787Z,19.04
2022-09-12T05:36:30.537Z,18.94
2022-09-12T05:38:57.743Z,18.87
2022-09-12T05:41:26.818Z,18.83
2022-09-12T05:43:55.187Z,18.80
2022-09-12T05:46:24.052Z,18.77
2022-09-12T05:48:55.613Z,18.74
2022-09-12T05:51:28.293Z,18.76
2022-09-12T05:53:57.527Z,18.79
2022-09-12T05:56:27.461Z,18.84
2022-09-12T05:59:02.570Z,18.89
2022-09-12T06:01:31.032Z,18.93
2022-09-12T06:04:00.961Z,18.94
2022-09-12T06:06:29.781Z,18.96
2022-09-12T06:08:58.940Z,18.97
2022-09-12T06:11:28.916Z,18.96
2022-09-12T06:13:56.893Z,18.92
2022-09-12T06:16:26.247Z,18.91
2022-09-12T06:18:55.339Z,18.87
2022-09-12T06:21:22.748Z,18.85
2022-09-12T06:23:50.111Z,18.85
2022-09-12T06:26:18.558Z,18.84
2022-09-12T06:28:45.473Z,18.83
2022-09-12T06:31:18.668Z,18.83
2022-09-12T06:33:47.933Z,18.81
2022-09-12T06:36:17.389Z,18.79
2022-09-12T06:38:44.514Z,18.77
2022-09-12T06:41:12.542Z,18.75
2022-09-12T06:43:40.692Z,18.72
2022-09-12T06:46:07.903Z,18.71
2022-09-12T06:48:39.570Z,18.70
2022-09-12T06:51:13.557Z,18.75
2022-09-12T06:53:41.296Z,18.71
2022-09-12T06:56:12.273Z,18.76
2022-09-12T06:58:39.144Z,18.76
2022-09-12T07:01:07.093Z,18.82
2022-09-12T07:03:34.599Z,18.85
2022-09-12T07:06:06.493Z,18.94
2022-09-12T07:08:35.140Z,18.94
2022-09-12T07:11:11.184Z,19.04
2022-09-12T07:13:38.807Z,19.03
2022-09-12T07:16:06.130Z,19.08
2022-09-12T07:18:34.409Z,19.15
2022-09-12T07:21:02.408Z,19.24
2022-09-12T07:23:30.000Z,19.31
2022-09-12T07:25:58.732Z,19.40
2022-09-12T07:28:26.742Z,19.49
2022-09-12T07:30:54.147Z,19.55
2022-09-12T07:33:22.366Z,19.63
2022-09-12T07:35:49.690Z,19.69
2022-09-12T07:38:17.119Z,19.75
2022-09-12T07:40:44.016Z,19.81
2022-09-12T07:43:10.523Z,19.87
2022-09-12T07:45:37.001Z,20.23
2022-09-12T07:48:03.983Z,20.06
2022-09-12T07:50:30.436Z,20.12
2022-09-12T07:52:56.907Z,20.45
2022-09-12T07:55:24.007Z,20.27
2022-09-12T07:57:53.260Z,20.37
2022-09-12T08:00:19.895Z,20.41
2022-09-12T08:02:51.367Z,20.53
2022-09-12T08:05:18.605Z,20.57
2022-09-12T08:07:45.097Z,20.66
2022-09-12T08:10:11.527Z,20.99
2022-09-12T08:12:38.105Z,20.88
2022-09-12T08:15:04.882Z,20.97
2022-09-12T08:17:31.385Z,21.09
2022-09-12T08:19:57.894Z,21.21
2022-09-12T08:22:24.508Z,21.31
2022-09-12T08:24:51.202Z,21.44
2022-09-12T08:27:17.731Z,21.56
2022-09-12T08:29:44.312Z,21.66
2022-09-12T08:32:10.892Z,21.74
2022-09-12T08:34:37.370Z,21.85
2022-09-12T08:37:04.608Z,21.94
2022-09-12T08:39:32.758Z,22.06
2022-09-12T08:42:06.788Z,22.18
2022-09-12T08:44:48.190Z,22.26
2022-09-12T08:47:22.022Z,22.39
2022-09-12T08:49:51.720Z,22.52
2022-09-12T08:52:30.969Z,22.65
2022-09-12T08:54:57.719Z,22.71
2022-09-12T08:57:27.033Z,22.83
2022-09-12T08:59:54.122Z,22.95
2022-09-12T09:02:53.137Z,23.15
2022-09-12T09:05:46.002Z,23.27
2022-09-12T09:08:45.679Z,23.41
2022-09-12T09:11:31.954Z,23.51
2022-09-12T09:14:29.312Z,23.55
2022-09-12T09:16:57.958Z,23.64
2022-09-12T09:19:37.869Z,23.76
2022-09-12T09:22:16.729Z,23.85
2022-09-12T09:24:52.039Z,23.92
2022-09-12T09:27:40.862Z,24.02
2022-09-12T09:30:16.649Z,24.13
2022-09-12T09:32:47.743Z,24.15
2022-09-12T09:35:38.090Z,24.29
2022-09-12T09:38:13.918Z,24.39
2022-09-12T09:41:01.503Z,24.51
2022-09-12T09:43:29.107Z,24.53
2022-09-12T09:45:57.586Z,24.59
2022-09-12T09:48:31.387Z,24.71
2022-09-12T09:51:00.390Z,24.75
2022-09-12T09:53:36.892Z,24.81
2022-09-12T09:56:13.482Z,24.93
2022-09-12T09:58:40.572Z,24.98
2022-09-12T10:01:15.800Z,25.07
2022-09-12T10:03:52.048Z,25.12
2022-09-12T10:06:21.365Z,25.15
2022-09-12T10:08:49.228Z,25.13
2022-09-12T10:11:15.709Z,25.12
2022-09-12T10:13:54.617Z,25.19
2022-09-12T10:16:30.618Z,25.17
2022-09-12T10:19:02.537Z,25.17
2022-09-12T10:21:35.051Z,25.23
2022-09-12T10:24:24.500Z,25.33
2022-09-12T10:27:07.123Z,25.30
2022-09-12T10:29:39.628Z,25.27
2022-09-12T10:32:09.238Z,25.29
2022-09-12T10:34:45.154Z,25.33
2022-09-12T10:42:15.145Z,25.42
2022-09-12T10:44:54.009Z,25.46
2022-09-12T10:47:22.998Z,25.40
2022-09-12T10:49:51.181Z,25.40
2022-09-12T10:52:21.888Z,25.41
2022-09-12T10:54:48.458Z,25.43
2022-09-12T10:57:17.727Z,25.49
2022-09-12T11:00:14.767Z,25.63
2022-09-12T11:02:59.563Z,25.69
2022-09-12T11:06:01.545Z,25.71
2022-09-12T11:08:44.213Z,25.71
2022-09-12T11:11:13.883Z,25.63
2022-09-12T11:14:02.141Z,25.75
2022-09-12T11:16:59.689Z,25.79
2022-09-12T11:19:47.117Z,25.81
2022-09-12T11:22:40.754Z,25.79
2022-09-12T11:25:12.473Z,25.73
2022-09-12T11:27:48.185Z,25.83
2022-09-12T11:30:18.829Z,25.86
2022-09-12T11:32:50.341Z,25.90
2022-09-12T11:35:54.572Z,26.09
2022-09-12T11:39:01.842Z,26.10
2022-09-12T11:41:35.655Z,26.12
2022-09-12T11:44:23.531Z,26.23
2022-09-12T11:46:52.054Z,26.21
2022-09-12T11:49:44.033Z,26.31
2022-09-12T11:52:17.271Z,26.36
2022-09-12T11:55:03.925Z,26.41
2022-09-12T11:57:48.418Z,26.49
2022-09-12T12:00:20.773Z,26.46
2022-09-12T12:03:33.308Z,26.66
2022-09-12T12:06:04.159Z,26.52
2022-09-12T12:08:32.080Z,26.57
2022-09-12T12:11:03.412Z,26.61
2022-09-12T12:13:51.221Z,26.67
2022-09-12T12:16:29.674Z,26.79
2022-09-12T12:19:01.687Z,26.74
2022-09-12T12:21:36.219Z,26.79
2022-09-12T12:24:08.624Z,26.81
2022-09-12T12:27:01.816Z,26.84
2022-09-12T12:29:43.650Z,26.84
2022-09-12T12:32:10.439Z,26.75
2022-09-12T12:34:42.539Z,26.75
2022-09-12T12:37:21.052Z,26.78
2022-09-12T12:39:51.301Z,26.69
2022-09-12T12:42:33.099Z,26.78
2022-09-12T12:45:01.059Z,26.64
2022-09-12T12:47:34.042Z,26.66
2022-09-12T12:50:05.951Z,26.66
2022-09-12T12:52:43.999Z,26.65
2022-09-12T12:55:17.100Z,26.70
2022-09-12T12:57:55.603Z,26.77
2022-09-12T13:00:24.868Z,26.77
2022-09-12T13:03:28.877Z,26.92
2022-09-12T13:06:01.604Z,26.93
2022-09-12T13:08:34.521Z,27.01
2022-09-12T13:11:07.642Z,27.07
2022-09-12T13:14:12.129Z,27.17
2022-09-12T13:16:52.141Z,27.25
2022-09-12T13:19:30.504Z,27.38
2022-09-12T13:22:01.043Z,27.41
2022-09-12T13:24:27.633Z,27.45
2022-09-12T13:26:54.568Z,27.51
2022-09-12T13:29:23.414Z,27.55
2022-09-12T13:31:55.453Z,27.61
2022-09-12T13:35:00.925Z,27.75
2022-09-12T13:37:49.712Z,27.76
2022-09-12T13:40:32.396Z,27.75
2022-09-12T13:43:25.666Z,27.84
2022-09-12T13:45:52.814Z,27.68
2022-09-12T13:48:25.325Z,27.74
2022-09-12T13:50:55.373Z,27.73
2022-09-12T13:53:25.172Z,27.77
2022-09-12T13:55:55.833Z,27.79
2022-09-12T13:58:25.561Z,27.82
2022-09-12T14:01:01.994Z,27.91
2022-09-12T14:03:49.150Z,27.88
2022-09-12T14:06:16.621Z,28.23
2022-09-12T14:08:44.363Z,28.00
2022-09-12T14:11:12.558Z,28.01
2022-09-12T14:13:39.282Z,28.03
2022-09-12T14:16:09.976Z,28.05
2022-09-12T14:18:38.634Z,28.09
2022-09-12T14:21:31.686Z,28.19
2022-09-12T14:23:59.466Z,28.26
2022-09-12T14:26:28.278Z,28.32
2022-09-12T14:28:54.849Z,28.36
2022-09-12T14:31:28.647Z,28.46
2022-09-12T14:34:08.832Z,28.42
2022-09-12T14:36:51.863Z,28.53
2022-09-12T14:39:33.427Z,28.55
2022-09-12T14:42:07.674Z,28.57
2022-09-12T14:44:35.642Z,28.56
2022-09-12T14:47:13.803Z,28.65
2022-09-12T14:49:41.159Z,28.56
2022-09-12T14:52:23.322Z,28.54
2022-09-12T14:55:16.654Z,28.56
2022-09-12T14:57:44.574Z,28.46
2022-09-12T15:00:14.530Z,28.44
2022-09-12T15:02:44.971Z,28.39
2022-09-12T15:05:11.356Z,28.28
2022-09-12T15:07:41.005Z,28.24
2022-09-12T15:10:25.258Z,28.20
2022-09-12T15:13:10.059Z,28.28
2022-09-12T15:15:37.677Z,28.12
2022-09-12T15:18:06.755Z,28.13
2022-09-12T15:20:38.709Z,28.21
2022-09-12T15:23:10.903Z,28.17
2022-09-12T15:25:37.331Z,28.12
2022-09-12T15:28:22.610Z,28.17
2022-09-12T15:30:52.072Z,28.05
2022-09-12T15:33:21.026Z,28.02
2022-09-12T15:35:47.532Z,27.99
2022-09-12T15:38:14.056Z,27.94
2022-09-12T15:40:40.834Z,27.90
2022-09-12T15:43:07.393Z,27.87
2022-09-12T15:45:35.433Z,27.85
2022-09-12T18:48:36.397Z,24.30
2022-09-12T18:51:11.136Z,24.27
2022-09-12T18:53:38.977Z,24.15
2022-09-12T18:56:10.221Z,24.14
2022-09-12T18:58:38.198Z,24.03
2022-09-12T19:01:14.317Z,24.08
2022-09-12T19:03:41.706Z,23.94
2022-09-12T19:06:17.547Z,23.94
2022-09-12T19:08:44.891Z,23.86
2022-09-12T19:11:12.673Z,23.77
2022-09-12T19:13:43.166Z,23.73
2022-09-12T19:18:39.778Z,23.62
2022-09-12T19:21:08.180Z,23.54
2022-09-12T19:23:36.080Z,23.47
2022-09-12T19:26:05.712Z,23.40
2022-09-12T19:28:33.325Z,23.26
2022-09-12T19:30:59.867Z,23.15
2022-09-12T19:33:26.362Z,23.05
2022-09-12T19:35:52.709Z,23.46
2022-09-12T19:38:19.444Z,22.96
2022-09-12T19:40:55.928Z,22.96
2022-09-12T19:43:22.361Z,22.79
2022-09-12T19:45:48.787Z,23.17
2022-09-12T19:48:15.282Z,22.68
2022-09-12T19:50:41.727Z,22.57
2022-09-12T19:53:08.297Z,22.98
2022-09-12T19:55:35.910Z,22.53
2022-09-12T19:58:02.989Z,22.44
2022-09-12T20:00:29.670Z,22.38
2022-09-12T20:02:56.108Z,22.35
2022-09-12T20:05:22.450Z,22.76
2022-09-12T20:07:48.951Z,22.31
2022-09-12T20:10:15.383Z,22.70
2022-09-12T20:12:42.075Z,22.25
2022-09-12T20:15:09.604Z,22.16
2022-09-12T20:17:36.164Z,22.10
2022-09-12T20:20:02.718Z,22.06
2022-09-12T20:22:29.226Z,22.00
2022-09-12T20:24:55.614Z,22.40
2022-09-12T20:27:22.055Z,21.93
2022-09-12T20:29:48.464Z,22.28
2022-09-12T20:32:14.877Z,21.78
2022-09-12T20:34:41.246Z,22.12
2022-09-12T20:37:07.767Z,21.63
2022-09-12T20:39:34.458Z,21.96
2022-09-12T20:42:00.884Z,21.48
2022-09-12T20:44:27.646Z,21.37
2022-09-12T20:46:54.140Z,21.27
2022-09-12T20:49:20.593Z,21.66
2022-09-12T20:51:48.379Z,21.21
2022-09-12T20:54:14.933Z,21.12
2022-09-12T20:56:41.492Z,21.55
2022-09-12T20:59:16.775Z,21.27
2022-09-12T21:01:44.149Z,21.20
2022-09-12T21:04:14.389Z,21.25
2022-09-12T21:06:41.605Z,21.33
2022-09-12T21:09:07.963Z,21.75
2022-09-12T21:11:34.497Z,21.54
2022-09-12T21:14:00.916Z,21.60
2022-09-12T21:16:27.594Z,22.02
2022-09-12T21:18:57.882Z,21.79
2022-09-12T21:21:25.538Z,21.81
2022-09-12T21:23:52.053Z,21.86
2022-09-12T21:26:18.655Z,21.91
2022-09-12T21:28:45.085Z,21.97
2022-09-12T21:31:11.575Z,22.37
2022-09-12T21:33:38.063Z,22.09
2022-09-12T21:36:05.244Z,22.47
2022-09-12T21:38:32.392Z,22.16
2022-09-12T21:41:28.819Z,22.34
2022-09-12T21:43:55.267Z,22.16
2022-09-12T21:46:21.692Z,22.54
2022-09-12T21:48:48.247Z,22.21
2022-09-12T21:51:14.659Z,22.19
2022-09-12T21:53:41.139Z,22.57
2022-09-12T21:56:08.543Z,22.22
2022-09-12T21:58:36.064Z,22.17
2022-09-12T22:01:02.878Z,22.14
2022-09-12T22:03:29.619Z,22.07
2022-09-12T22:06:01.545Z,22.08
2022-09-12T22:08:29.678Z,22.00
2022-09-12T22:11:02.077Z,22.01
2022-09-12T22:13:32.490Z,21.95
2022-09-12T22:16:00.418Z,21.86
2022-09-12T22:18:26.923Z,21.81
2022-09-12T22:21:00.039Z,22.15
2022-09-12T22:23:45.177Z,21.78
2022-09-12T22:26:12.116Z,21.73
2022-09-12T22:28:38.532Z,21.67
2022-09-12T22:31:06.644Z,22.00
2022-09-12T22:33:33.083Z,21.64
2022-09-12T22:35:59.628Z,21.96
2022-09-12T22:38:26.065Z,21.59
2022-09-12T22:40:52.443Z,21.92
2022-09-12T22:43:18.856Z,21.57
2022-09-12T22:45:45.182Z,21.87
2022-09-12T22:48:11.691Z,21.53
2022-09-12T22:50:38.455Z,21.85
2022-09-12T22:53:04.910Z,21.51
2022-09-12T22:55:31.368Z,21.81
2022-09-12T22:57:57.787Z,21.44
2022-09-12T23:00:24.179Z,21.76
2022-09-12T23:02:50.780Z,21.40
2022-09-12T23:05:17.249Z,21.36
2022-09-12T23:07:43.656Z,21.73
2022-09-12T23:10:10.682Z,21.40
2022-09-12T23:12:37.116Z,21.39
2022-09-12T23:15:03.783Z,21.75
2022-09-12T23:17:30.241Z,21.48
2022-09-12T23:19:56.559Z,21.78
2022-09-12T23:22:22.974Z,21.48
2022-09-12T23:24:49.326Z,21.82
2022-09-12T23:27:15.788Z,21.51
2022-09-12T23:29:42.103Z,21.85
2022-09-12T23:32:08.532Z,21.54
2022-09-12T23:34:34.878Z,21.85
2022-09-12T23:37:01.350Z,21.55
2022-09-12T23:39:27.724Z,21.87
2022-09-12T23:41:54.223Z,21.56
2022-09-12T23:44:20.595Z,21.88
2022-09-12T23:46:47.032Z,21.56
2022-09-12T23:49:13.399Z,21.87
2022-09-12T23:51:39.808Z,21.52
2022-09-12T23:54:06.243Z,21.86
2022-09-12T23:56:32.644Z,21.52
2022-09-12T23:58:59.016Z,21.82
